createdAt,value
2016-11-25T00:02:10.514Z,21.8
2016-11-25T00:07:14.746Z,21.8
2016-11-25T00:12:18.979Z,21.8
2016-11-25T00:17:23.209Z,21.8
2016-11-25T00:22:27.369Z,21.8
2016-11-25T00:27:31.496Z,21.8
2016-11-25T00:32:35.593Z,21.7
2016-11-25T00:37:40.045Z,21.7
2016-11-25T00:42:44.130Z,21.7
2016-11-25T00:47:48.216Z,21.7
2016-11-25T00:52:52.636Z,21.7
2016-11-25T00:57:57.059Z,21.7
2016-11-25T01:03:01.140Z,21.7
2016-11-25T01:08:05.228Z,21.7
2016-11-25T01:13:09.322Z,21.6
2016-11-25T01:18:13.407Z,21.6
2016-11-25T01:23:17.832Z,21.6
2016-11-25T01:28:21.919Z,21.6
2016-11-25T01:33:26.345Z,21.6
2016-11-25T01:38:31.115Z,21.6
2016-11-25T01:43:35.220Z,21.6
2016-11-25T01:48:39.977Z,21.6
2016-11-25T01:53:44.402Z,21.5
2016-11-25T01:58:48.483Z,21.5
2016-11-25T02:03:52.902Z,21.5
2016-11-25T02:08:56.999Z,21.5
2016-11-25T02:14:01.430Z,21.5
2016-11-25T02:19:05.859Z,21.5
2016-11-25T02:24:09.944Z,21.5
2016-11-25T02:29:14.038Z,21.5
2016-11-25T02:34:18.133Z,21.5
2016-11-25T02:39:22.554Z,21.5
2016-11-25T02:44:26.657Z,21.4
2016-11-25T02:49:31.091Z,21.4
2016-11-25T02:54:35.517Z,21.4
2016-11-25T02:59:39.608Z,21.4
2016-11-25T03:04:44.043Z,21.4
2016-11-25T03:09:48.138Z,21.4
2016-11-25T03:14:52.240Z,21.4
2016-11-25T03:19:56.675Z,21.4
2016-11-25T03:25:01.106Z,21.4
2016-11-25T03:30:05.539Z,21.4
2016-11-25T03:35:09.635Z,21.4
2016-11-25T03:40:14.061Z,21.4
2016-11-25T03:45:18.688Z,21.3
2016-11-25T03:50:22.787Z,21.4
2016-11-25T03:55:26.870Z,21.4
2016-11-25T04:00:30.959Z,21.3
2016-11-25T04:05:35.390Z,21.3
2016-11-25T04:10:39.500Z,21.3
2016-11-25T04:15:43.923Z,21.3
2016-11-25T04:20:48.021Z,21.3
2016-11-25T04:25:52.451Z,21.3
2016-11-25T04:30:56.876Z,21.3
2016-11-25T04:36:01.307Z,21.3
2016-11-25T04:41:05.404Z,21.3
2016-11-25T04:46:09.505Z,21.3
2016-11-25T04:51:13.606Z,21.4
2016-11-25T04:56:17.700Z,21.4
2016-11-25T05:01:21.797Z,21.4
2016-11-25T05:06:26.233Z,21.4
2016-11-25T05:11:30.329Z,21.4
2016-11-25T05:16:34.427Z,21.4
2016-11-25T05:21:38.849Z,21.4
2016-11-25T05:26:42.942Z,21.4
2016-11-25T05:31:47.375Z,21.4
2016-11-25T05:36:51.529Z,21.4
2016-11-25T05:41:55.943Z,21.4
2016-11-25T05:47:00.048Z,21.4
2016-11-25T05:52:04.818Z,21.4
2016-11-25T05:57:09.245Z,21.5
2016-11-25T06:02:13.343Z,21.5
2016-11-25T06:07:17.772Z,21.6
2016-11-25T06:12:22.199Z,21.6
2016-11-25T06:17:26.290Z,21.7
2016-11-25T06:22:30.396Z,21.7
2016-11-25T06:27:34.828Z,21.8
2016-11-25T06:32:39.964Z,21.8
2016-11-25T06:37:44.734Z,21.9
2016-11-25T06:42:48.830Z,21.9
2016-11-25T06:47:53.281Z,21.9
2016-11-25T06:52:58.281Z,22
2016-11-25T06:58:02.775Z,22
2016-11-25T07:03:06.869Z,22.1
2016-11-25T07:08:10.965Z,22.1
2016-11-25T07:13:15.084Z,22.1
2016-11-25T07:18:19.507Z,22.1
2016-11-25T07:23:23.601Z,22.1
2016-11-25T07:28:27.768Z,22.1
2016-11-25T07:33:32.208Z,22.1
2016-11-25T07:38:36.642Z,22.1
2016-11-25T07:43:41.086Z,22.1
2016-11-25T07:48:45.180Z,22
2016-11-25T07:53:49.279Z,22
2016-11-25T07:58:53.378Z,22
2016-11-25T08:03:57.481Z,22
2016-11-25T08:09:01.579Z,22
2016-11-25T08:19:25.669Z,22
2016-11-25T08:24:30.110Z,22
2016-11-25T08:29:34.938Z,22
2016-11-25T08:34:39.040Z,22
2016-11-25T08:39:43.477Z,22
2016-11-25T08:44:47.579Z,22
2016-11-25T08:49:52.020Z,22
2016-11-25T08:54:56.114Z,21.9
2016-11-25T09:00:00.215Z,21.9
2016-11-25T09:05:04.637Z,21.9
2016-11-25T09:10:08.748Z,21.9
2016-11-25T09:15:13.182Z,21.9
2016-11-25T09:20:17.281Z,21.9
2016-11-25T09:25:21.383Z,22
2016-11-25T09:30:25.495Z,22
2016-11-25T09:35:29.597Z,22
2016-11-25T09:40:33.695Z,22
2016-11-25T09:45:37.802Z,22
2016-11-25T09:50:42.566Z,22
2016-11-25T09:55:47.002Z,22
2016-11-25T10:00:51.435Z,22
2016-11-25T10:05:55.544Z,22
2016-11-25T10:10:59.639Z,22
2016-11-25T10:16:03.747Z,22
2016-11-25T10:21:08.190Z,22
2016-11-25T10:26:12.296Z,22
2016-11-25T10:31:16.396Z,21.9
2016-11-25T10:36:20.489Z,22
2016-11-25T10:41:25.259Z,21.9
2016-11-25T10:46:29.354Z,21.9
2016-11-25T10:51:33.452Z,21.9
2016-11-25T10:56:37.902Z,21.9
2016-11-25T11:01:42.675Z,21.9
2016-11-25T11:06:46.780Z,21.9
2016-11-25T11:11:50.873Z,21.9
2016-11-25T11:16:54.968Z,21.9
2016-11-25T11:21:59.407Z,21.9
2016-11-25T11:27:03.497Z,21.9
2016-11-25T11:32:07.928Z,21.9
2016-11-25T11:37:12.361Z,21.9
2016-11-25T11:42:17.127Z,21.9
2016-11-25T11:47:21.232Z,21.9
2016-11-25T11:52:25.330Z,21.9
2016-11-25T11:57:29.422Z,22
2016-11-25T12:02:33.852Z,21.9
2016-11-25T12:07:37.951Z,22
2016-11-25T12:12:42.055Z,22
2016-11-25T12:17:46.161Z,22
2016-11-25T12:22:50.269Z,22
2016-11-25T12:27:54.369Z,22
2016-11-25T12:32:58.466Z,22
2016-11-25T12:38:02.563Z,21.9
2016-11-25T12:43:06.662Z,21.9
2016-11-25T12:48:11.094Z,21.9
2016-11-25T12:53:15.203Z,21.9
2016-11-25T12:58:19.302Z,21.9
2016-11-25T13:03:23.398Z,21.9
2016-11-25T13:08:27.523Z,21.9
2016-11-25T13:13:31.662Z,21.9
2016-11-25T13:18:36.427Z,21.9
2016-11-25T13:23:41.192Z,21.9
2016-11-25T13:28:45.630Z,22
2016-11-25T13:33:50.075Z,21.9
2016-11-25T13:38:54.841Z,22
2016-11-25T13:43:59.274Z,22
2016-11-25T13:49:03.376Z,22
2016-11-25T13:54:07.474Z,22
2016-11-25T13:59:11.567Z,22
2016-11-25T14:04:15.670Z,22
2016-11-25T14:09:19.777Z,21.9
2016-11-25T14:14:24.563Z,22
2016-11-25T14:19:29.018Z,22
2016-11-25T14:24:33.785Z,22.1
2016-11-25T14:29:37.885Z,22.1
2016-11-25T14:34:42.314Z,22.1
2016-11-25T14:39:46.414Z,22.1
2016-11-25T14:44:50.861Z,22.1
2016-11-25T14:49:54.964Z,22.1
2016-11-25T14:54:59.070Z,22.1
2016-11-25T15:00:03.164Z,22.1
2016-11-25T15:05:07.259Z,22.1
2016-11-25T15:10:12.055Z,22.1
2016-11-25T15:15:16.163Z,22.1
2016-11-25T15:20:20.595Z,22.1
2016-11-25T15:25:25.034Z,22.1
2016-11-25T15:30:29.500Z,22.1
2016-11-25T15:35:33.603Z,22.1
2016-11-25T15:40:38.378Z,22.1
2016-11-25T15:45:43.166Z,22.1
2016-11-25T15:50:48.153Z,22.2
2016-11-25T15:55:52.248Z,22.2
2016-11-25T16:00:56.348Z,22.2
2016-11-25T16:06:00.810Z,22.2
2016-11-25T16:11:04.908Z,22.2
2016-11-25T16:16:09.008Z,22.2
2016-11-25T16:21:13.107Z,22.2
2016-11-25T16:26:17.242Z,22.2
2016-11-25T16:31:22.194Z,22.2
2016-11-25T16:36:27.312Z,22.2
2016-11-25T16:41:31.847Z,22.3
2016-11-25T16:46:35.937Z,22.2
2016-11-25T16:51:40.031Z,22.2
2016-11-25T16:56:44.465Z,22.2
2016-11-25T17:01:48.578Z,22.2
2016-11-25T17:06:52.883Z,22.2
2016-11-25T17:11:56.986Z,22.2
2016-11-25T17:17:01.088Z,22.2
2016-11-25T17:22:05.853Z,22.2
2016-11-25T17:27:09.950Z,22.2
2016-11-25T17:32:14.049Z,22.2
2016-11-25T17:37:18.158Z,22.2
2016-11-25T17:42:22.606Z,22.2
2016-11-25T17:47:27.078Z,22.3
2016-11-25T17:52:31.167Z,22.3
2016-11-25T17:57:35.282Z,22.3
2016-11-25T18:02:39.746Z,22.3
2016-11-25T18:07:44.400Z,22.3
2016-11-25T18:12:48.501Z,22.4
2016-11-25T18:17:52.940Z,22.4
2016-11-25T18:23:12.874Z,22.4
2016-11-25T18:28:16.976Z,22.4
2016-11-25T18:33:21.134Z,22.4
2016-11-25T18:38:25.232Z,22.3
2016-11-25T18:43:29.332Z,22.4
2016-11-25T18:48:33.773Z,22.4
2016-11-25T18:53:37.874Z,22.4
2016-11-25T18:58:41.972Z,22.4
2016-11-25T19:03:46.068Z,22.4
2016-11-25T19:08:50.161Z,22.4
2016-11-25T19:13:54.257Z,22.4
2016-11-25T19:18:58.688Z,22.4
2016-11-25T19:24:02.780Z,22.4
2016-11-25T19:29:07.215Z,22.4
2016-11-25T19:34:11.313Z,22.4
2016-11-25T19:39:15.424Z,22.4
2016-11-25T19:44:19.871Z,22.4
2016-11-25T19:49:23.985Z,22.4
2016-11-25T19:54:28.083Z,22.4
2016-11-25T19:59:32.183Z,22.3
2016-11-25T20:04:36.295Z,22.3
2016-11-25T20:09:40.404Z,22.3
2016-11-25T20:14:45.528Z,22.3
2016-11-25T20:19:49.653Z,22.3
2016-11-25T20:24:54.313Z,22.3
2016-11-25T20:29:58.416Z,22.3
2016-11-25T20:35:02.521Z,22.3
2016-11-25T20:40:06.963Z,22.3
2016-11-25T20:45:11.362Z,22.3
2016-11-25T20:50:15.493Z,22.4
2016-11-25T20:55:19.595Z,22.4
2016-11-25T21:00:23.700Z,22.3
2016-11-25T21:05:27.869Z,22.3
2016-11-25T21:10:32.351Z,22.3
2016-11-25T21:15:36.450Z,22.3
2016-11-25T21:20:40.881Z,22.3
2016-11-25T21:25:44.974Z,22.3
2016-11-25T21:30:49.084Z,22.2
2016-11-25T21:35:53.181Z,22.2
2016-11-25T21:40:57.303Z,22.2
2016-11-25T21:46:01.405Z,22.2
2016-11-25T21:51:06.170Z,22.1
2016-11-25T21:56:10.270Z,22.1
2016-11-25T22:01:14.707Z,22.1
2016-11-25T22:06:19.119Z,22.1
2016-11-25T22:11:23.219Z,22.1
2016-11-25T22:16:27.646Z,22.1
2016-11-25T22:21:32.078Z,22.1
2016-11-25T22:26:36.171Z,22.1
2016-11-25T22:31:40.268Z,22.1
2016-11-25T22:36:44.708Z,22.1
2016-11-25T22:41:48.811Z,22
2016-11-25T22:46:53.245Z,22
2016-11-25T22:51:58.007Z,22
2016-11-25T22:57:02.432Z,22
2016-11-25T23:02:06.531Z,22
2016-11-25T23:07:10.641Z,22
2016-11-25T23:12:15.063Z,21.9
2016-11-25T23:17:19.156Z,21.9
2016-11-25T23:22:23.255Z,21.9
2016-11-25T23:27:27.350Z,21.9
2016-11-25T23:32:31.795Z,21.9
2016-11-25T23:37:35.896Z,21.9
2016-11-25T23:42:40.329Z,21.9
2016-11-25T23:47:44.424Z,21.8
2016-11-25T23:52:48.867Z,21.8
2016-11-25T23:57:53.292Z,21.8
